Time;durP1;ratioP1;P1;durP2;ratioP2;P2;SDS_P1;SDS_P2;PMS_P1;PMS_P2;Temp;Humidity;BMP_temperature;BMP_pressure;BME280_temperature;BME280_humidity;BME280_pressure;Samples;Min_cycle;Max_cycle;Signal;HPM_P1;HPM_P2
2022/11/06 00:00:02;;;;;;;46.55;31.52;;;5.60;99.90;;;;;;6196580;23;20204;-85
2022/11/06 00:02:29;;;;;;;50.08;32.28;;;5.40;99.90;;;;;;6196086;23;20232;-85
2022/11/06 00:06:46;;;;;;;48.28;31.02;;;5.50;99.90;;;;;;6194724;23;20401;-85
2022/11/06 00:07:46;;;;;;;49.03;32.13;;;5.40;99.90;;;;;;6194022;23;20223;-85
2022/11/06 00:10:15;;;;;;;47.97;33.72;;;5.30;99.90;;;;;;6194386;23;20188;-85
2022/11/06 00:12:50;;;;;;;47.92;32.53;;;5.30;99.90;;;;;;6170642;23;20169;-85
2022/11/06 00:15:17;;;;;;;44.35;32.55;;;5.30;99.90;;;;;;6194164;23;20243;-88
2022/11/06 00:17:58;;;;;;;52.45;31.10;;;5.30;99.90;;;;;;6193494;23;20445;-85
2022/11/06 00:20:28;;;;;;;54.30;33.15;;;5.20;99.90;;;;;;6193730;23;20259;-85
2022/11/06 00:23:44;;;;;;;47.40;31.67;;;5.20;99.90;;;;;;6168765;23;20527;-87
2022/11/06 00:26:16;;;;;;;51.20;31.77;;;5.20;99.90;;;;;;6192295;23;20203;-87
2022/11/06 00:28:44;;;;;;;45.20;31.38;;;5.30;99.90;;;;;;6191211;23;20162;-89
2022/11/06 00:31:13;;;;;;;44.95;31.80;;;5.30;99.90;;;;;;6164700;23;20224;-88
2022/11/06 00:33:41;;;;;;;66.07;35.35;;;5.30;99.90;;;;;;6192778;23;20189;-86
2022/11/06 00:36:14;;;;;;;51.13;31.42;;;5.30;99.90;;;;;;6191296;23;20251;-86
2022/11/06 00:38:44;;;;;;;50.40;31.77;;;5.30;99.90;;;;;;6191348;23;20231;-87
2022/11/06 00:41:15;;;;;;;50.92;29.83;;;5.30;99.90;;;;;;6193288;23;20177;-87
2022/11/06 00:43:57;;;;;;;59.08;33.03;;;5.20;99.90;;;;;;6193787;23;20185;-87
2022/11/06 00:46:27;;;;;;;45.58;30.58;;;5.30;99.90;;;;;;6193921;23;20234;-87
2022/11/06 00:48:54;;;;;;;47.63;30.52;;;5.20;99.90;;;;;;6192783;23;20185;-86
2022/11/06 00:51:34;;;;;;;43.70;30.83;;;5.10;99.90;;;;;;6167690;23;20185;-88
2022/11/06 00:54:04;;;;;;;49.97;30.92;;;5.00;99.90;;;;;;6195494;23;20176;-86
2022/11/06 00:56:31;;;;;;;50.50;31.10;;;5.00;99.90;;;;;;6193848;23;20189;-84
2022/11/06 00:59:02;;;;;;;40.53;29.92;;;5.10;99.90;;;;;;6195057;23;20211;-86
2022/11/06 01:01:33;;;;;;;47.80;30.55;;;5.00;99.90;;;;;;6192617;23;20227;-87
2022/11/06 01:04:10;;;;;;;46.30;29.70;;;5.10;99.90;;;;;;6168665;23;20165;-88
2022/11/06 01:06:43;;;;;;;46.38;30.83;;;5.00;99.90;;;;;;6167865;23;20216;-87
2022/11/06 01:09:13;;;;;;;47.63;30.65;;;5.00;99.90;;;;;;6193834;23;20231;-87
2022/11/06 01:11:47;;;;;;;47.53;31.35;;;5.10;99.90;;;;;;6194175;23;20173;-85
2022/11/06 01:14:34;;;;;;;52.47;33.78;;;5.00;99.90;;;;;;6171745;23;20232;-87
2022/11/06 01:17:01;;;;;;;45.05;31.27;;;4.90;99.90;;;;;;6197387;23;20212;-86
2022/11/06 01:19:29;;;;;;;53.33;33.97;;;5.00;99.90;;;;;;6197684;23;20243;-86
2022/11/06 01:21:55;;;;;;;49.85;30.20;;;4.90;99.90;;;;;;6196430;23;20181;-86
2022/11/06 01:24:25;;;;;;;43.75;30.52;;;4.90;99.90;;;;;;6194982;23;20189;-86
2022/11/06 01:26:54;;;;;;;45.45;31.00;;;4.90;99.90;;;;;;6194010;23;20249;-87
2022/11/06 01:29:44;;;;;;;51.03;30.73;;;5.00;99.90;;;;;;6194202;23;20181;-89
2022/11/06 01:32:12;;;;;;;46.22;29.83;;;5.00;99.90;;;;;;6193595;23;20244;-87
2022/11/06 01:34:39;;;;;;;55.53;30.80;;;5.00;99.90;;;;;;6193051;23;20188;-86
2022/11/06 01:37:07;;;;;;;62.40;32.25;;;4.90;99.90;;;;;;6167054;23;20240;-86
2022/11/06 01:39:41;;;;;;;45.42;32.33;;;4.90;99.90;;;;;;6169375;23;20260;-86
2022/11/06 01:42:20;;;;;;;53.13;33.22;;;4.80;99.90;;;;;;6194849;23;20184;-86
2022/11/06 01:45:20;;;;;;;47.90;31.20;;;4.80;99.90;;;;;;6178784;23;20172;-88
2022/11/06 01:47:47;;;;;;;47.05;31.05;;;4.70;99.90;;;;;;6186452;23;20192;-85
2022/11/06 01:50:15;;;;;;;54.92;33.70;;;4.50;99.90;;;;;;6204865;23;20169;-86
2022/11/06 01:52:45;;;;;;;52.85;33.85;;;4.60;99.90;;;;;;6195212;23;20185;-86
2022/11/06 01:55:21;;;;;;;57.15;33.10;;;4.70;99.90;;;;;;6192190;23;20243;-87
2022/11/06 01:57:48;;;;;;;49.72;34.28;;;4.70;99.90;;;;;;6194544;23;20160;-86
2022/11/06 02:00:16;;;;;;;51.88;34.17;;;4.70;99.90;;;;;;6171225;23;20204;-85
2022/11/06 02:02:43;;;;;;;57.90;36.25;;;4.80;99.90;;;;;;6171225;23;20185;-85
2022/11/06 02:05:11;;;;;;;61.20;36.65;;;4.80;99.90;;;;;;6196323;23;20177;-84
2022/11/06 02:07:39;;;;;;;56.00;37.40;;;4.80;99.90;;;;;;6169477;23;20200;-85
2022/11/06 02:10:08;;;;;;;56.80;32.92;;;4.70;99.90;;;;;;6193791;23;20181;-85
2022/11/06 02:12:49;;;;;;;52.03;33.80;;;4.80;99.90;;;;;;6195004;23;20221;-85
2022/11/06 02:15:41;;;;;;;59.55;37.78;;;4.70;99.90;;;;;;6195338;23;20240;-86
2022/11/06 02:18:41;;;;;;;52.22;34.03;;;4.70;99.90;;;;;;6194178;23;20473;-87
2022/11/06 02:21:23;;;;;;;55.13;35.88;;;4.70;99.90;;;;;;6168279;23;20464;-85
2022/11/06 02:24:03;;;;;;;60.70;36.95;;;4.60;99.90;;;;;;6194192;23;20344;-88
2022/11/06 02:27:06;;;;;;;56.10;35.38;;;4.60;99.90;;;;;;6194907;23;20231;-86
2022/11/06 02:29:57;;;;;;;75.05;41.90;;;4.60;99.90;;;;;;6162004;23;20197;-86
2022/11/06 02:32:39;;;;;;;71.07;38.20;;;4.50;99.90;;;;;;6194256;23;20193;-87
2022/11/06 02:35:18;;;;;;;60.00;39.03;;;4.50;99.90;;;;;;6194210;23;20161;-87
2022/11/06 02:37:47;;;;;;;67.88;36.70;;;4.60;99.90;;;;;;6194155;23;20445;-87
2022/11/06 02:40:15;;;;;;;58.50;38.58;;;4.60;99.90;;;;;;6193738;23;20272;-88
2022/11/06 02:42:47;;;;;;;70.80;38.63;;;4.70;99.90;;;;;;6198602;23;20246;-86
2022/11/06 02:45:18;;;;;;;60.65;39.50;;;4.70;99.90;;;;;;6198245;23;20165;-86
2022/11/06 02:47:49;;;;;;;55.53;36.63;;;4.70;99.90;;;;;;6171807;23;20220;-86
2022/11/06 02:50:27;;;;;;;55.60;34.92;;;4.70;99.90;;;;;;6197131;23;20292;-86
2022/11/06 02:53:05;;;;;;;59.05;35.00;;;4.60;99.90;;;;;;6146622;23;20161;-86
2022/11/06 02:55:42;;;;;;;59.80;35.60;;;4.40;99.90;;;;;;6194020;23;20169;-86
2022/11/06 02:58:36;;;;;;;66.38;39.05;;;4.50;99.90;;;;;;6167093;23;20189;-86
2022/11/06 03:01:18;;;;;;;50.08;34.53;;;4.50;99.90;;;;;;6195329;23;20251;-85
2022/11/06 03:03:50;;;;;;;58.55;38.63;;;4.50;99.90;;;;;;6168913;23;20161;-86
2022/11/06 03:06:28;;;;;;;57.92;36.28;;;4.50;99.90;;;;;;6194482;23;20523;-86
2022/11/06 03:09:02;;;;;;;52.65;33.08;;;4.50;99.90;;;;;;6196742;23;20515;-85
2022/11/06 03:11:34;;;;;;;50.25;33.08;;;4.60;99.90;;;;;;6206950;23;20240;-86
2022/11/06 03:14:07;;;;;;;45.72;32.08;;;4.60;99.90;;;;;;6212278;23;20184;-86
2022/11/06 03:17:00;;;;;;;49.95;31.88;;;4.60;99.90;;;;;;6212203;23;20188;-89
2022/11/06 03:19:41;;;;;;;61.90;39.88;;;4.60;99.90;;;;;;6207961;23;20188;-87
2022/11/06 03:22:27;;;;;;;48.15;33.78;;;4.60;99.90;;;;;;6212532;23;20169;-86
2022/11/06 03:25:04;;;;;;;51.28;30.98;;;4.60;99.90;;;;;;6202664;23;20177;-86
2022/11/06 03:28:06;;;;;;;66.55;39.15;;;4.60;99.90;;;;;;6197414;23;20217;-88
2022/11/06 03:30:39;;;;;;;47.90;29.05;;;4.50;99.90;;;;;;6167649;23;20176;-86
2022/11/06 03:33:27;;;;;;;48.80;30.98;;;4.50;99.90;;;;;;6200433;23;20223;-87
2022/11/06 03:36:12;;;;;;;50.67;31.42;;;4.60;99.90;;;;;;6193010;23;20231;-89
2022/11/06 03:38:45;;;;;;;39.30;28.38;;;4.60;99.90;;;;;;6192324;23;20173;-87
2022/11/06 03:41:21;;;;;;;65.10;34.08;;;4.70;99.90;;;;;;6166559;23;20239;-87
2022/11/06 03:43:51;;;;;;;53.97;32.63;;;4.70;99.90;;;;;;6191593;23;20620;-86
2022/11/06 03:46:24;;;;;;;51.15;31.67;;;4.70;99.90;;;;;;6192145;23;20445;-87
2022/11/06 03:48:57;;;;;;;48.55;33.13;;;4.70;99.90;;;;;;6166857;23;20161;-87
2022/11/06 03:51:48;;;;;;;51.35;34.08;;;4.70;99.90;;;;;;6191880;23;20162;-87
2022/11/06 03:54:22;;;;;;;45.55;31.13;;;4.60;99.90;;;;;;6166004;23;20216;-88
2022/11/06 03:56:57;;;;;;;43.40;27.95;;;4.60;99.90;;;;;;6191121;23;20177;-87
2022/11/06 03:59:32;;;;;;;48.08;27.92;;;4.60;99.90;;;;;;6191929;23;20193;-87
2022/11/06 04:02:03;;;;;;;56.70;33.90;;;4.60;99.90;;;;;;6191422;23;20507;-87
2022/11/06 04:04:50;;;;;;;45.83;28.58;;;4.60;99.90;;;;;;6166211;23;20385;-88
2022/11/06 04:07:25;;;;;;;46.17;30.25;;;4.50;99.90;;;;;;6191911;23;20169;-88
2022/11/06 04:15:43;;;;;;;47.38;27.83;;;4.50;99.90;;;;;;6193500;23;20183;-86
2022/11/06 04:18:15;;;;;;;42.00;30.00;;;4.50;99.90;;;;;;6192849;23;20223;-86
2022/11/06 04:27:12;;;;;;;42.72;28.63;;;4.40;99.90;;;;;;6208403;23;20215;-88
2022/11/06 04:30:04;;;;;;;55.78;30.77;;;4.50;99.90;;;;;;6186347;23;20157;-86
2022/11/06 04:33:11;;;;;;;48.05;31.52;;;4.50;99.90;;;;;;6205052;23;20161;-85
2022/11/06 04:35:41;;;;;;;50.22;31.15;;;4.60;99.90;;;;;;6212517;23;20181;-87
2022/11/06 04:38:34;;;;;;;45.45;29.08;;;4.50;99.90;;;;;;6203384;23;20244;-87
2022/11/06 04:41:42;;;;;;;47.28;28.17;;;4.40;99.90;;;;;;6195207;23;20188;-87
2022/11/06 04:44:21;;;;;;;46.70;29.20;;;4.40;99.90;;;;;;6115527;23;20244;-88
2022/11/06 04:46:53;;;;;;;40.65;25.95;;;4.50;99.90;;;;;;6201006;23;20192;-88
2022/11/06 04:49:23;;;;;;;46.20;29.60;;;4.50;99.90;;;;;;6198814;23;20200;-88
2022/11/06 04:51:51;;;;;;;52.28;30.48;;;4.50;99.90;;;;;;6195619;23;20227;-87
2022/11/06 04:54:19;;;;;;;41.13;29.30;;;4.50;99.90;;;;;;6193984;23;20181;-88
2022/11/06 04:56:49;;;;;;;41.17;28.73;;;4.60;99.90;;;;;;6199599;23;20184;-88
2022/11/06 04:59:18;;;;;;;47.67;29.02;;;4.50;99.90;;;;;;6204107;23;20218;-88
2022/11/06 05:01:47;;;;;;;39.33;27.50;;;4.40;99.90;;;;;;6201178;23;20197;-88
2022/11/06 05:04:14;;;;;;;42.95;28.10;;;4.50;99.90;;;;;;6171113;23;20542;-88
2022/11/06 05:06:43;;;;;;;35.83;27.05;;;4.60;99.90;;;;;;6192471;23;20185;-89
2022/11/06 05:09:11;;;;;;;42.95;28.95;;;4.40;99.90;;;;;;6192354;23;20640;-88
2022/11/06 05:11:39;;;;;;;38.13;27.45;;;4.40;99.90;;;;;;6192929;23;20189;-87
2022/11/06 05:14:06;;;;;;;42.72;27.40;;;4.30;99.90;;;;;;6193552;23;20181;-84
2022/11/06 05:16:34;;;;;;;44.70;26.92;;;4.20;99.90;;;;;;6193683;23;20193;-87
2022/11/06 05:19:02;;;;;;;39.60;27.52;;;4.20;99.90;;;;;;6172972;23;20189;-87
2022/11/06 05:24:15;;;;;;;53.45;29.25;;;4.10;99.90;;;;;;6201759;23;20176;-84
2022/11/06 05:26:43;;;;;;;43.55;26.90;;;4.10;99.90;;;;;;6194287;23;20173;-84
2022/11/06 05:29:11;;;;;;;44.13;27.88;;;4.10;99.90;;;;;;6195990;23;20184;-84
2022/11/06 05:31:39;;;;;;;37.40;26.70;;;4.10;99.90;;;;;;6194946;23;20185;-87
2022/11/06 05:34:08;;;;;;;40.25;26.13;;;4.10;99.90;;;;;;6168292;23;20240;-86
2022/11/06 05:36:36;;;;;;;45.08;29.00;;;4.10;99.90;;;;;;6193454;23;20281;-88
2022/11/06 05:39:06;;;;;;;47.15;29.02;;;4.00;99.90;;;;;;6191645;23;20419;-86
2022/11/06 05:41:39;;;;;;;49.47;33.75;;;4.10;99.90;;;;;;6196339;23;20247;-85
2022/11/06 05:44:08;;;;;;;56.90;31.73;;;4.10;99.90;;;;;;6195375;23;20171;-88
2022/11/06 05:46:36;;;;;;;54.80;35.40;;;4.10;99.90;;;;;;6167527;23;20188;-87
2022/11/06 05:49:20;;;;;;;50.45;35.10;;;3.90;99.90;;;;;;6192084;23;20169;-88
2022/11/06 05:51:49;;;;;;;62.42;33.60;;;3.90;99.90;;;;;;6192090;23;20193;-88
2022/11/06 05:54:16;;;;;;;57.90;33.22;;;4.00;99.90;;;;;;6191725;23;20219;-87
2022/11/06 05:56:43;;;;;;;51.65;33.78;;;3.90;99.90;;;;;;6192851;23;20193;-86
2022/11/06 05:59:10;;;;;;;51.30;31.23;;;4.00;99.90;;;;;;6193781;23;20180;-89
2022/11/06 06:01:38;;;;;;;60.30;29.55;;;4.00;99.90;;;;;;6167269;23;20240;-88
2022/11/06 06:04:06;;;;;;;53.17;29.70;;;3.90;99.90;;;;;;6141858;23;20204;-87
2022/11/06 06:06:33;;;;;;;61.17;31.55;;;3.80;99.90;;;;;;6192600;23;20256;-87
2022/11/06 06:09:01;;;;;;;47.63;30.25;;;3.90;99.90;;;;;;6193901;23;20185;-88
2022/11/06 06:11:28;;;;;;;40.97;26.13;;;3.90;99.90;;;;;;6161908;23;20284;-91
2022/11/06 06:13:56;;;;;;;46.63;26.17;;;3.90;99.90;;;;;;6166527;23;20243;-89
2022/11/06 06:16:24;;;;;;;47.72;27.98;;;4.00;99.90;;;;;;6193132;23;20196;-86
2022/11/06 06:18:51;;;;;;;36.15;24.90;;;4.10;99.90;;;;;;6193515;23;20189;-89
2022/11/06 06:21:20;;;;;;;45.17;27.13;;;4.20;99.90;;;;;;6193158;23;20196;-89
2022/11/06 06:23:50;;;;;;;37.33;23.88;;;4.20;99.90;;;;;;6193302;23;20185;-88
2022/11/06 06:26:17;;;;;;;39.70;25.92;;;4.20;99.90;;;;;;6193645;23;20254;-88
2022/11/06 06:28:47;;;;;;;31.17;23.27;;;4.30;99.90;;;;;;6167991;23;20202;-88
2022/11/06 06:31:16;;;;;;;39.85;25.67;;;4.20;99.90;;;;;;6167313;23;20255;-87
2022/11/06 06:33:42;;;;;;;35.40;22.27;;;4.20;99.90;;;;;;6196078;23;20192;-89
2022/11/06 06:36:10;;;;;;;43.05;25.10;;;4.10;99.90;;;;;;6168395;23;20496;-89
2022/11/06 06:38:38;;;;;;;40.63;23.00;;;4.20;99.90;;;;;;6207420;23;20161;-89
2022/11/06 06:43:48;;;;;;;35.75;22.98;;;4.20;99.90;;;;;;6214558;23;20515;-88
2022/11/06 06:46:16;;;;;;;37.55;23.08;;;4.30;99.90;;;;;;6210750;23;21596;-90
2022/11/06 06:48:43;;;;;;;48.58;24.73;;;4.30;99.90;;;;;;6235629;23;20275;-88
2022/11/06 06:51:12;;;;;;;37.13;25.55;;;4.40;99.90;;;;;;6234302;23;20164;-89
2022/11/06 06:53:41;;;;;;;43.90;24.70;;;4.30;99.90;;;;;;6207158;23;20242;-91
2022/11/06 06:56:08;;;;;;;33.03;22.33;;;4.20;99.90;;;;;;6222127;23;20188;-88
2022/11/06 06:58:35;;;;;;;36.92;23.33;;;4.30;99.90;;;;;;6223477;23;20165;-88
2022/11/06 07:01:09;;;;;;;36.95;25.25;;;4.50;99.90;;;;;;6197902;23;20204;-88
2022/11/06 07:03:37;;;;;;;37.63;23.90;;;4.50;99.90;;;;;;6224989;23;20170;-88
2022/11/06 07:06:06;;;;;;;34.83;25.13;;;4.60;99.90;;;;;;6237930;23;20178;-87
2022/11/06 07:08:36;;;;;;;37.05;24.15;;;4.80;99.90;;;;;;6242764;23;20242;-85
2022/11/06 07:11:08;;;;;;;34.05;23.42;;;4.80;99.90;;;;;;6234418;23;20206;-90
2022/11/06 07:13:36;;;;;;;44.72;26.60;;;4.80;99.90;;;;;;6216762;23;20192;-84
2022/11/06 07:16:06;;;;;;;41.83;27.58;;;5.00;99.90;;;;;;6242413;23;20168;-88
2022/11/06 07:18:34;;;;;;;37.83;25.92;;;5.40;99.90;;;;;;6234189;23;20513;-83
2022/11/06 07:21:05;;;;;;;38.10;25.80;;;5.60;99.90;;;;;;6224636;23;20251;-86
2022/11/06 07:23:33;;;;;;;34.38;25.58;;;5.70;99.90;;;;;;6222667;23;20172;-86
2022/11/06 07:26:03;;;;;;;35.78;26.67;;;5.90;99.90;;;;;;6220229;23;20184;-85
2022/11/06 07:28:33;;;;;;;31.63;22.75;;;6.10;99.90;;;;;;6222172;23;20187;-82
2022/11/06 07:31:02;;;;;;;45.25;22.90;;;6.20;99.90;;;;;;6222355;23;20180;-86
2022/11/06 07:33:31;;;;;;;27.20;18.17;;;6.20;99.90;;;;;;6222251;23;20505;-83
2022/11/06 07:36:05;;;;;;;26.35;17.38;;;6.40;99.90;;;;;;6221352;23;20230;-84
2022/11/06 07:38:34;;;;;;;19.85;13.50;;;6.70;99.90;;;;;;6221663;23;20479;-84
2022/11/06 07:41:06;;;;;;;22.77;14.05;;;6.70;99.90;;;;;;6222819;23;20279;-85
2022/11/06 07:43:42;;;;;;;19.20;13.52;;;6.90;99.90;;;;;;6222160;23;20172;-83
2022/11/06 07:46:12;;;;;;;17.92;11.55;;;7.00;99.90;;;;;;6195530;23;20172;-85
2022/11/06 07:48:39;;;;;;;17.67;11.82;;;7.30;99.90;;;;;;6148535;23;20448;-81
2022/11/06 07:51:09;;;;;;;15.15;11.45;;;7.30;99.90;;;;;;6198842;23;20173;-82
2022/11/06 07:53:38;;;;;;;16.45;12.10;;;7.10;99.90;;;;;;6225798;23;20161;-82
2022/11/06 07:56:07;;;;;;;14.02;10.38;;;6.80;99.90;;;;;;6225017;23;20184;-80
2022/11/06 07:58:35;;;;;;;18.13;11.00;;;6.70;99.90;;;;;;6210024;23;20168;-81
2022/11/06 08:01:02;;;;;;;16.75;11.48;;;6.50;99.90;;;;;;6241035;23;20226;-88
2022/11/06 08:03:29;;;;;;;15.90;11.90;;;6.40;99.90;;;;;;6239959;23;20207;-90
2022/11/06 08:05:57;;;;;;;16.65;10.63;;;6.30;99.90;;;;;;6187140;23;20410;-84
2022/11/06 08:08:24;;;;;;;17.70;12.95;;;6.40;99.90;;;;;;6226254;23;20184;-84
2022/11/06 08:10:52;;;;;;;16.70;12.15;;;6.60;99.90;;;;;;6219400;23;20184;-82
2022/11/06 08:13:19;;;;;;;21.02;12.27;;;6.60;99.90;;;;;;6220532;23;20239;-81
2022/11/06 08:15:46;;;;;;;14.23;11.38;;;6.70;99.90;;;;;;6220514;23;20348;-84
2022/11/06 08:18:13;;;;;;;23.33;13.90;;;6.90;99.90;;;;;;6194844;23;20184;-83
2022/11/06 08:20:43;;;;;;;26.48;15.80;;;7.80;99.90;;;;;;6219589;23;20439;-81
2022/11/06 08:23:12;;;;;;;36.92;16.73;;;9.30;99.90;;;;;;6219563;23;20232;-82
2022/11/06 08:25:39;;;;;;;20.67;11.32;;;10.40;99.90;;;;;;6219650;23;20184;-84
2022/11/06 08:28:07;;;;;;;24.15;16.70;;;11.30;99.90;;;;;;6220007;23;20188;-82
2022/11/06 08:30:35;;;;;;;17.17;12.35;;;12.30;99.90;;;;;;6194041;23;20192;-80
2022/11/06 08:33:05;;;;;;;13.57;8.73;;;13.30;99.90;;;;;;6220515;23;20184;-84
2022/11/06 08:35:35;;;;;;;12.75;9.45;;;13.50;99.90;;;;;;6219488;23;20188;-84
2022/11/06 08:38:07;;;;;;;10.35;7.90;;;13.40;99.90;;;;;;6219448;23;20186;-81
2022/11/06 08:40:44;;;;;;;13.90;8.77;;;13.50;99.90;;;;;;6218784;23;20211;-84
2022/11/06 08:43:19;;;;;;;9.38;7.45;;;13.90;99.90;;;;;;6220210;23;20187;-84
2022/11/06 08:45:46;;;;;;;12.88;7.50;;;14.30;99.90;;;;;;6193801;23;20185;-82
2022/11/06 08:48:15;;;;;;;13.00;6.65;;;13.80;99.90;;;;;;6220197;23;20188;-84
2022/11/06 08:50:45;;;;;;;9.52;7.50;;;13.40;99.90;;;;;;6220226;23;20207;-83
2022/11/06 08:53:12;;;;;;;7.95;5.60;;;12.80;99.90;;;;;;6219074;23;20215;-83
2022/11/06 08:55:41;;;;;;;6.90;5.80;;;12.10;99.90;;;;;;6194058;23;20375;-88
2022/11/06 08:58:09;;;;;;;8.57;6.10;;;11.60;99.90;;;;;;6194602;23;20176;-83
2022/11/06 09:00:36;;;;;;;15.68;7.72;;;11.30;99.90;;;;;;6195024;23;20196;-86
2022/11/06 09:03:09;;;;;;;10.85;7.32;;;11.20;99.90;;;;;;6221938;23;20376;-83
2022/11/06 09:05:40;;;;;;;13.93;8.27;;;10.90;99.90;;;;;;6196091;23;20214;-83
2022/11/06 09:08:10;;;;;;;9.30;7.22;;;10.40;99.90;;;;;;6223760;23;20283;-82
2022/11/06 09:10:38;;;;;;;9.25;7.50;;;10.10;99.90;;;;;;6198767;23;20239;-81
2022/11/06 09:13:06;;;;;;;9.38;7.05;;;10.20;99.90;;;;;;6197775;23;20514;-87
2022/11/06 09:15:33;;;;;;;15.27;7.43;;;10.00;99.90;;;;;;6221454;23;20243;-87
2022/11/06 09:18:00;;;;;;;11.48;7.80;;;9.80;99.90;;;;;;6221951;23;20188;-83
2022/11/06 09:20:28;;;;;;;11.63;8.20;;;9.80;99.90;;;;;;6195143;23;20250;-87
2022/11/06 09:23:01;;;;;;;14.02;7.75;;;9.80;99.90;;;;;;6221495;23;20176;-85
2022/11/06 09:25:29;;;;;;;16.25;8.07;;;9.70;99.90;;;;;;6221583;23;20175;-84
2022/11/06 09:27:58;;;;;;;13.23;6.93;;;9.70;99.90;;;;;;6221662;23;20172;-85
2022/11/06 09:30:30;;;;;;;16.00;7.20;;;9.70;99.90;;;;;;6222313;23;20184;-82
2022/11/06 09:33:01;;;;;;;12.93;8.35;;;9.80;99.90;;;;;;6196679;23;20160;-82
2022/11/06 09:35:31;;;;;;;12.13;8.00;;;10.00;99.90;;;;;;6223088;23;20491;-82
2022/11/06 09:38:04;;;;;;;12.98;8.23;;;10.00;99.90;;;;;;6201745;23;20161;-84
2022/11/06 09:40:43;;;;;;;11.98;8.95;;;9.90;99.90;;;;;;6212664;23;20164;-88
2022/11/06 09:44:00;;;;;;;15.88;8.15;;;9.80;99.90;;;;;;6218166;23;20172;-84
2022/11/06 09:46:40;;;;;;;10.68;7.68;;;9.90;99.90;;;;;;6227557;23;20188;-83
2022/11/06 09:49:36;;;;;;;12.48;7.15;;;10.00;99.90;;;;;;6227102;23;20226;-85
2022/11/06 09:52:18;;;;;;;11.50;6.95;;;10.00;99.90;;;;;;6228578;23;20271;-83
2022/11/06 09:55:16;;;;;;;11.65;6.93;;;10.00;99.90;;;;;;6225930;23;20185;-82
2022/11/06 09:58:03;;;;;;;9.98;7.10;;;10.10;99.90;;;;;;6222544;23;20168;-83
2022/11/06 10:00:31;;;;;;;7.40;6.13;;;10.30;99.90;;;;;;6221969;23;20210;-82
2022/11/06 10:03:31;;;;;;;10.00;7.07;;;10.30;99.90;;;;;;6228151;23;20407;-83
2022/11/06 10:06:01;;;;;;;6.82;5.65;;;10.40;99.90;;;;;;6229347;23;20242;-83
2022/11/06 10:08:32;;;;;;;12.15;6.57;;;10.20;99.90;;;;;;6224274;23;20169;-82
2022/11/06 10:11:04;;;;;;;11.35;5.65;;;10.40;99.90;;;;;;6225329;23;20183;-82
2022/11/06 10:13:55;;;;;;;9.18;6.45;;;10.50;99.90;;;;;;6221337;23;20231;-83
2022/11/06 10:16:40;;;;;;;7.60;6.05;;;10.40;99.90;;;;;;6221974;23;20180;-80
2022/11/06 10:19:34;;;;;;;7.43;6.00;;;10.40;99.90;;;;;;6222172;23;20231;-83
2022/11/06 10:22:27;;;;;;;10.20;5.35;;;10.50;99.90;;;;;;6220192;23;20188;-81
2022/11/06 10:25:18;;;;;;;8.30;6.43;;;10.50;99.90;;;;;;6218729;23;20367;-82
2022/11/06 10:28:11;;;;;;;15.27;7.07;;;10.40;99.90;;;;;;6219344;23;20391;-84
2022/11/06 10:30:55;;;;;;;8.85;6.50;;;10.50;99.90;;;;;;6220871;23;20436;-83
2022/11/06 10:33:48;;;;;;;7.60;5.80;;;10.70;99.90;;;;;;6194116;23;20226;-82
2022/11/06 10:36:20;;;;;;;7.75;6.10;;;10.90;99.90;;;;;;6192669;23;20207;-82
2022/11/06 10:38:49;;;;;;;5.90;5.10;;;10.90;99.90;;;;;;6219130;23;20671;-83
2022/11/06 10:41:21;;;;;;;8.00;4.55;;;10.80;99.90;;;;;;6194511;23;20208;-83
2022/11/06 10:44:06;;;;;;;5.43;3.50;;;10.80;99.90;;;;;;6204019;23;20160;-82
2022/11/06 10:46:46;;;;;;;4.10;3.40;;;11.00;99.90;;;;;;6222711;23;20188;-82
2022/11/06 10:49:32;;;;;;;8.70;4.75;;;11.00;99.90;;;;;;6195172;23;20427;-81
2022/11/06 10:52:37;;;;;;;10.00;4.65;;;11.10;99.90;;;;;;6221930;23;20243;-84
2022/11/06 10:55:34;;;;;;;6.47;5.57;;;11.00;99.90;;;;;;6221165;23;20189;-85
2022/11/06 10:58:15;;;;;;;8.43;5.20;;;11.10;99.90;;;;;;6193416;23;20207;-84
2022/11/06 11:00:43;;;;;;;7.32;5.25;;;11.00;99.90;;;;;;6220711;23;20169;-81
2022/11/06 11:03:27;;;;;;;7.82;4.63;;;11.00;99.90;;;;;;6222142;23;20184;-82
2022/11/06 11:05:55;;;;;;;5.90;3.80;;;11.10;99.90;;;;;;6221780;23;20478;-82
2022/11/06 11:08:46;;;;;;;12.40;4.40;;;11.10;99.90;;;;;;6225657;23;20184;-88
2022/11/06 11:11:14;;;;;;;11.90;5.20;;;11.10;99.90;;;;;;6213454;23;20153;-88
2022/11/06 11:13:43;;;;;;;8.05;3.72;;;11.10;99.90;;;;;;6240820;23;20190;-88
2022/11/06 11:16:25;;;;;;;7.40;4.47;;;11.20;99.90;;;;;;6241430;23;20187;-83
2022/11/06 11:18:54;;;;;;;9.40;3.97;;;11.20;99.90;;;;;;6236771;23;20230;-81
2022/11/06 11:21:24;;;;;;;8.25;4.45;;;11.30;99.90;;;;;;6214185;23;20203;-83
2022/11/06 11:24:07;;;;;;;7.28;4.28;;;11.20;99.90;;;;;;6179205;23;20211;-83
2022/11/06 11:26:48;;;;;;;9.63;5.38;;;11.20;99.90;;;;;;6226401;23;20194;-83
2022/11/06 11:29:38;;;;;;;4.68;3.45;;;11.30;99.90;;;;;;6197846;23;20472;-82
2022/11/06 11:32:06;;;;;;;5.53;3.28;;;11.20;99.90;;;;;;6198921;23;20403;-83
2022/11/06 11:34:43;;;;;;;7.18;3.75;;;11.10;99.90;;;;;;6220906;23;20180;-82
2022/11/06 11:37:25;;;;;;;6.70;4.15;;;11.20;99.90;;;;;;6197548;23;20164;-86
2022/11/06 11:39:52;;;;;;;4.95;2.05;;;11.30;99.90;;;;;;6222457;23;20172;-89
2022/11/06 11:42:28;;;;;;;5.10;3.20;;;11.20;99.90;;;;;;6195453;23;20250;-84
2022/11/06 11:45:08;;;;;;;4.40;2.97;;;11.20;99.90;;;;;;6195348;23;20180;-83
2022/11/06 11:47:50;;;;;;;6.22;2.47;;;11.40;99.90;;;;;;6223209;23;20229;-81
2022/11/06 11:50:28;;;;;;;8.15;2.88;;;11.40;99.90;;;;;;6223698;23;20168;-88
2022/11/06 11:53:18;;;;;;;8.55;3.58;;;11.50;99.90;;;;;;6194341;23;20191;-84
2022/11/06 11:55:49;;;;;;;3.30;3.00;;;11.50;99.90;;;;;;6219237;23;20175;-82
2022/11/06 11:58:27;;;;;;;7.28;3.75;;;11.60;99.90;;;;;;6220342;23;20242;-83
2022/11/06 12:01:02;;;;;;;4.28;2.85;;;11.40;99.90;;;;;;6223106;23;20172;-84
2022/11/06 12:03:39;;;;;;;5.32;2.67;;;11.50;99.90;;;;;;6173333;23;20350;-83
2022/11/06 12:06:13;;;;;;;5.35;2.80;;;11.40;99.90;;;;;;6223097;23;20157;-85
2022/11/06 12:08:46;;;;;;;5.18;3.40;;;11.30;99.90;;;;;;6223943;23;20219;-83
2022/11/06 12:11:21;;;;;;;4.70;2.60;;;11.40;99.90;;;;;;6198879;23;20585;-81
2022/11/06 12:14:26;;;;;;;3.15;2.78;;;11.40;99.90;;;;;;6222365;23;20165;-82
2022/11/06 12:17:20;;;;;;;6.80;2.70;;;11.40;99.90;;;;;;6238043;23;20176;-87
2022/11/06 12:19:55;;;;;;;7.03;4.05;;;11.50;99.90;;;;;;6236293;23;20206;-82
2022/11/06 12:22:34;;;;;;;4.78;2.30;;;11.50;99.90;;;;;;6223040;23;20184;-82
2022/11/06 12:25:26;;;;;;;4.30;2.60;;;11.40;99.90;;;;;;6198790;23;20183;-84
2022/11/06 12:27:59;;;;;;;3.70;2.20;;;11.50;99.90;;;;;;6198249;23;20500;-82
2022/11/06 12:30:33;;;;;;;6.45;2.70;;;11.60;99.90;;;;;;6197979;23;20186;-82
2022/11/06 12:33:15;;;;;;;4.18;2.80;;;11.80;99.90;;;;;;6240786;23;20236;-82
2022/11/06 12:35:49;;;;;;;7.28;3.45;;;11.70;99.90;;;;;;6241115;23;20176;-86
2022/11/06 12:38:40;;;;;;;5.88;2.30;;;11.80;99.90;;;;;;6240519;23;20254;-89
2022/11/06 12:41:21;;;;;;;10.07;2.83;;;11.70;99.90;;;;;;6229537;23;20512;-83
2022/11/06 12:43:55;;;;;;;5.53;2.70;;;11.60;99.90;;;;;;6197115;23;20175;-83
2022/11/06 12:47:20;;;;;;;10.85;2.92;;;11.40;99.90;;;;;;6224451;23;20204;-82
2022/11/06 12:50:07;;;;;;;3.08;2.35;;;11.50;99.90;;;;;;6169903;23;20271;-83
2022/11/06 12:53:12;;;;;;;5.60;2.97;;;11.50;99.90;;;;;;6225296;23;20223;-86
2022/11/06 12:55:55;;;;;;;7.82;2.88;;;11.50;99.90;;;;;;6188939;23;20184;-83
2022/11/06 12:58:45;;;;;;;6.53;3.65;;;11.60;99.90;;;;;;6196961;23;20222;-83
2022/11/06 13:01:32;;;;;;;8.43;3.05;;;11.50;99.90;;;;;;6224009;23;20204;-85
2022/11/06 13:04:34;;;;;;;7.35;2.28;;;11.60;99.90;;;;;;6223760;23;20173;-84
2022/11/06 13:07:33;;;;;;;6.28;2.20;;;11.70;99.90;;;;;;6195805;23;20191;-84
2022/11/06 13:10:27;;;;;;;3.65;1.85;;;11.50;99.90;;;;;;6226008;23;20192;-82
2022/11/06 13:13:18;;;;;;;2.92;2.15;;;11.60;99.90;;;;;;6229471;23;20212;-81
2022/11/06 13:16:31;;;;;;;2.38;1.83;;;11.50;99.90;;;;;;6229219;23;20231;-86
2022/11/06 13:19:04;;;;;;;4.47;2.45;;;11.40;99.90;;;;;;6210856;23;20432;-82
2022/11/06 13:21:58;;;;;;;5.95;2.85;;;11.40;99.90;;;;;;6226436;23;20189;-84
2022/11/06 13:24:42;;;;;;;3.75;2.65;;;11.50;99.90;;;;;;6224649;23;20215;-84
2022/11/06 13:27:35;;;;;;;3.42;2.78;;;11.30;99.90;;;;;;6224828;23;20172;-83
2022/11/06 13:30:14;;;;;;;7.70;2.65;;;11.40;99.90;;;;;;6200120;23;20421;-84
2022/11/06 13:32:49;;;;;;;3.95;2.80;;;11.30;99.90;;;;;;6225856;23;20491;-83
2022/11/06 13:35:21;;;;;;;3.67;2.80;;;11.30;99.90;;;;;;6224687;23;20184;-86
2022/11/06 13:37:50;;;;;;;6.68;3.38;;;11.20;99.90;;;;;;6198061;23;20204;-85
2022/11/06 13:40:43;;;;;;;5.43;2.80;;;11.20;99.90;;;;;;6224493;23;20180;-87